Data for 04/10/2005

Time Sea-Level Adjusted Pressure Absolute Pressure Temperature Relative Humidity Dew Point   
(mb) (inHg) (mb) (inHg) (C) (F) (%) (C) (F)
00:05 1015 29.97 844 24.92 3.2 37.8 60 -3.9 25
00:10 1015 29.97 844 24.92 3.2 37.7 60 -3.9 24.9
00:15 1015 29.97 844 24.92 3.1 37.7 59 -4 24.8
00:20 1015 29.97 844 24.92 3.1 37.6 59 -4.1 24.6
00:25 1015 29.97 844 24.92 3.2 37.7 59 -4.1 24.7
00:30 1015 29.97 844 24.92 3.1 37.6 59 -4.1 24.6
00:35 1015 29.97 844 24.92 3.1 37.6 59 -4.2 24.5
00:40 1015 29.97 844 24.92 3.1 37.5 59 -4.1 24.5
00:45 1015 29.97 844 24.92 3.1 37.5 59 -4.2 24.4
00:50 1015 29.97 844 24.92 3 37.4 59 -4.2 24.4
00:55 1015 29.97 844 24.92 3 37.4 59 -4.3 24.3
01:00 1015 29.97 844 24.92 3 37.5 59 -4.2 24.4
01:05 1015 29.97 844 24.92 3 37.4 57 -4.6 23.7
01:10 1015 29.97 844 24.92 3 37.4 58 -4.6 23.8
01:15 1015 29.97 844 24.92 2.9 37.3 57 -4.7 23.6
01:20 1015 29.97 844 24.92 2.9 37.2 58 -4.6 23.7
01:25 1015 29.97 844 24.92 2.9 37.2 58 -4.6 23.7
01:30 1015 29.97 844 24.92 2.8 37 57 -4.9 23.2
01:35 1015 29.97 844 24.92 2.8 37.1 57 -4.9 23.3
01:40 1015 29.97 844 24.92 2.8 37.1 57 -4.9 23.2
01:45 1015 29.97 844 24.92 2.8 37 58 -4.6 23.7
01:50 1015 29.97 844 24.92 2.7 36.9 58 -4.7 23.5
01:55 1015 29.97 844 24.92 2.8 37 57 -4.8 23.3
02:00 1015 29.97 844 24.92 2.7 36.9 57 -4.9 23.3
02:05 1015 29.97 844 24.92 2.7 36.9 58 -4.8 23.4
02:10 1015 29.97 844 24.92 2.7 36.9 58 -4.7 23.5
02:15 1015 29.97 844 24.92 2.7 36.8 59 -4.6 23.7
02:20 1015 29.97 845 24.95 2.6 36.7 58 -4.9 23.2
02:25 1015 29.97 845 24.95 2.7 36.8 57 -5 23
02:30 1015 29.97 845 24.95 2.7 36.8 57 -5 23
02:35 1015 29.97 845 24.95 2.7 36.8 57 -5 23
02:40 1015 29.97 845 24.95 2.6 36.7 57 -5 23
02:45 1015 29.97 845 24.95 2.6 36.6 57 -5.1 22.8
02:50 1015 29.97 845 24.95 2.6 36.7 57 -5 23
02:55 1015 29.97 845 24.95 2.5 36.6 57 -5.1 22.9
03:00 1016 30 845 24.95 2.5 36.5 57 -5.1 22.9
03:05 1016 30 845 24.95 2.5 36.5 57 -5.1 22.9
03:10 1016 30 845 24.95 2.5 36.5 57 -5.2 22.7
03:15 1016 30 845 24.95 2.5 36.5 57 -5.1 22.8
03:20 1016 30 845 24.95 2.5 36.5 58 -4.9 23.2
03:25 1016 30 845 24.95 2.4 36.4 59 -4.9 23.2
03:30 1016 30 845 24.95 2.4 36.3 58 -5.1 22.7
03:35 1016 30 845 24.95 2.5 36.4 57 -5.2 22.6
03:40 1016 30 845 24.95 2.5 36.4 56 -5.3 22.4
03:45 1016 30 845 24.95 2.5 36.5 57 -5.1 22.8
03:50 1016 30 845 24.95 2.5 36.4 58 -5 23
03:55 1016 30 845 24.95 2.4 36.4 58 -4.9 23.1
04:00 1016 30 845 24.95 2.3 36.1 59 -5 23
04:05 1016 30 845 24.95 2.3 36.1 58 -5.1 22.9
04:10 1016 30 845 24.95 2.3 36.1 58 -5.1 22.9
04:15 1016 30 845 24.95 2.3 36.1 58 -5.1 22.7
04:20 1016 30 845 24.95 2.3 36.1 57 -5.3 22.5
04:25 1016 30 845 24.95 2.3 36.2 57 -5.4 22.3
04:30 1016 30 845 24.95 2.3 36.2 56 -5.5 22.1
04:35 1016 30 845 24.95 2.4 36.3 57 -5.2 22.7
04:40 1016 30 846 24.98 2.3 36.1 59 -4.9 23.2
04:45 1016 30 846 24.98 2.2 36 60 -4.7 23.6
04:50 1016 30 846 24.98 2.1 35.8 61 -4.7 23.5
04:55 1017 30.03 846 24.98 2.1 35.8 60 -4.8 23.3
05:00 1017 30.03 846 24.98 2.1 35.8 60 -4.9 23.1
05:05 1017 30.03 846 24.98 2.1 35.8 60 -4.8 23.3
05:10 1017 30.03 846 24.98 2.1 35.8 60 -4.8 23.3
05:15 1017 30.03 846 24.98 2.1 35.8 59 -5 23
05:20 1017 30.03 846 24.98 2.2 35.9 59 -5.1 22.8
05:25 1017 30.03 846 24.98 2.2 36 59 -5 23
05:30 1017 30.03 846 24.98 2.3 36.1 58 -5.1 22.9
05:35 1017 30.03 846 24.98 2.3 36.1 58 -5.2 22.7
05:40 1017 30.03 846 24.98 2.3 36.1 58 -5.1 22.8
05:45 1017 30.03 846 24.98 2.3 36.1 59 -5 23
05:50 1017 30.03 846 24.98 2.1 35.8 60 -4.9 23.2
05:55 1017 30.03 846 24.98 2 35.6 61 -4.8 23.4
06:00 1017 30.03 846 24.98 2 35.6 60 -4.9 23.1
06:05 1017 30.03 846 24.98 2.1 35.7 60 -5 23
06:10 1017 30.03 846 24.98 2.1 35.8 60 -4.8 23.4
06:15 1017 30.03 846 24.98 2 35.7 60 -4.8 23.3
06:20 1017 30.03 846 24.98 2 35.6 60 -4.9 23.2
06:25 1017 30.03 846 24.98 2 35.6 61 -4.8 23.3
06:30 1017 30.03 846 24.98 1.9 35.5 60 -5 23
06:35 1017 30.03 846 24.98 1.9 35.5 60 -5 23
06:40 1017 30.03 846 24.98 1.9 35.5 60 -5 23
06:45 1017 30.03 846 24.98 1.9 35.4 60 -5 23.1
06:50 1017 30.03 847 25.01 1.8 35.3 61 -4.9 23.1
06:55 1017 30.03 847 25.01 1.8 35.2 61 -4.9 23.2
07:00 1018 30.06 847 25.01 1.7 35.1 62 -4.8 23.4
07:05 1018 30.06 847 25.01 1.7 35 61 -4.9 23.1
07:10 1018 30.06 847 25.01 1.7 35.1 61 -5.1 22.9
07:15 1018 30.06 847 25.01 1.7 35.1 61 -5 23
07:20 1018 30.06 847 25.01 1.8 35.2 60 -5.1 22.8
07:25 1018 30.06 847 25.01 1.8 35.3 60 -5.1 22.8
07:30 1018 30.06 847 25.01 1.8 35.2 61 -5 22.9
07:35 1018 30.06 847 25.01 1.8 35.2 61 -5 23.1
07:40 1018 30.06 847 25.01 1.8 35.2 61 -5 23
07:45 1018 30.06 847 25.01 1.8 35.2 61 -5 23.1
07:50 1018 30.06 847 25.01 1.8 35.3 60 -5 22.9
07:55 1018 30.06 847 25.01 1.8 35.3 61 -4.9 23.2
08:00 1018 30.06 847 25.01 2 35.7 61 -4.8 23.4
08:05 1018 30.06 847 25.01 2.1 35.8 60 -4.8 23.3
08:10 1018 30.06 847 25.01 2.2 36 59 -5 23
08:15 1018 30.06 847 25.01 2.2 35.9 60 -4.9 23.2
08:20 1018 30.06 847 25.01 2.3 36.2 59 -4.8 23.3
08:25 1018 30.06 847 25.01 2.4 36.2 59 -4.8 23.3
08:30 1018 30.06 847 25.01 2.5 36.5 59 -4.8 23.4
08:35 1018 30.06 847 25.01 2.4 36.3 59 -4.8 23.4
08:40 1018 30.06 847 25.01 2.5 36.5 59 -4.7 23.6
08:45 1018 30.06 847 25.01 2.7 36.8 57 -4.9 23.2
08:50 1018 30.06 847 25.01 2.8 37 58 -4.8 23.4
08:55 1018 30.06 847 25.01 2.9 37.3 57 -4.8 23.4
09:00 1018 30.06 848 25.04 3.1 37.6 57 -4.7 23.6
09:05 1018 30.06 848 25.04 3.4 38 55 -4.7 23.5
09:10 1018 30.06 848 25.04 3.5 38.2 55 -4.6 23.7
09:15 1019 30.09 848 25.04 3.5 38.3 54 -4.9 23.3
09:20 1019 30.09 848 25.04 3.6 38.4 55 -4.7 23.6
09:25 1019 30.09 848 25.04 3.7 38.6 54 -4.8 23.4
09:30 1019 30.09 848 25.04 3.8 38.9 53 -4.8 23.4
09:35 1019 30.09 848 25.04 4 39.2 53 -4.6 23.7
09:40 1019 30.09 848 25.04 4.1 39.3 53 -4.6 23.7
09:45 1019 30.09 848 25.04 4.3 39.8 52 -4.8 23.4
09:50 1019 30.09 848 25.04 4.6 40.3 51 -4.6 23.7
09:55 1019 30.09 848 25.04 4.8 40.7 50 -4.6 23.6
10:00 1019 30.09 848 25.04 5 41 49 -4.9 23.3
10:05 1019 30.09 848 25.04 5.3 41.5 51 -4 24.8
10:10 1019 30.09 848 25.04 4.5 40.2 50 -5 23
10:15 1019 30.09 848 25.04 5.2 41.3 47 -5.3 22.5
10:20 1019 30.09 848 25.04 5.4 41.7 48 -4.8 23.3
10:25 1019 30.09 849 25.07 4.9 40.9 49 -4.9 23.2
10:30 1019 30.09 849 25.07 4.8 40.7 51 -4.6 23.7
10:35 1019 30.09 849 25.07 4.8 40.7 51 -4.5 23.9
10:40 1019 30.09 849 25.07 5.5 41.9 47 -4.9 23.1
10:45 1019 30.09 849 25.07 5.5 41.8 49 -4.5 23.9
10:50 1019 30.09 849 25.07 5.5 41.8 48 -4.7 23.5
10:55 1019 30.09 849 25.07 5.5 41.9 47 -4.9 23.2
11:00 1019 30.09 849 25.07 5.8 42.4 47 -4.7 23.5
11:05 1020 30.12 849 25.07 5.8 42.4 47 -4.7 23.6
11:10 1020 30.12 849 25.07 5.8 42.5 47 -4.5 23.9
11:15 1020 30.12 849 25.07 5.5 41.8 49 -4.5 23.9
11:20 1020 30.12 849 25.07 5.2 41.3 49 -4.7 23.5
11:25 1020 30.12 849 25.07 5.2 41.3 49 -4.8 23.4
11:30 1020 30.12 849 25.07 5 41 50 -4.7 23.6
11:35 1020 30.12 849 25.07 4.5 40.1 56 -3.5 25.8
11:40 1019 30.09 849 25.07 4.1 39.5 55 -4.1 24.6
11:45 1020 30.12 849 25.07 3.6 38.5 59 -3.8 25.2
11:50 1020 30.12 849 25.07 3.6 38.5 57 -4.2 24.4
11:55 1020 30.12 849 25.07 3.8 38.9 62 -2.8 27
12:00 1020 30.12 849 25.07 3.1 37.6 65 -2.8 27
12:05 1020 30.12 849 25.07 2.6 36.7 69 -2.4 27.6
12:10 1020 30.12 849 25.07 2.6 36.7 71 -2.2 28.1
12:15 1020 30.12 849 25.07 2.6 36.7 70 -2.2 28
12:20 1020 30.12 849 25.07 2.4 36.2 72 -2.1 28.1
12:25 1020 30.12 849 25.07 2.9 37.2 73 -1.5 29.4
12:30 1020 30.12 849 25.07 3.7 38.6 65 -2.4 27.8
12:35 1020 30.12 849 25.07 4.2 39.6 58 -3.2 26.2
12:40 1020 30.12 849 25.07 4.5 40 57 -3.3 26.1
12:45 1020 30.12 849 25.07 4.8 40.6 53 -4.1 24.6
12:50 1020 30.12 849 25.07 4.6 40.4 52 -4.3 24.3
12:55 1020 30.12 849 25.07 4.6 40.3 51 -4.8 23.3
13:00 1020 30.12 849 25.07 5 40.9 49 -4.7 23.5
13:05 1020 30.12 849 25.07 5.5 42 46 -5.3 22.5
13:10 1019 30.09 849 25.07 5.8 42.5 44 -5.4 22.3
13:15 1020 30.12 849 25.07 6.4 43.5 43 -5.4 22.2
13:20 1019 30.09 849 25.07 6.5 43.8 41 -5.9 21.5
13:25 1019 30.09 849 25.07 6.3 43.3 41 -5.9 21.4
13:30 1019 30.09 849 25.07 6.5 43.6 39 -6.5 20.3
13:35 1019 30.09 849 25.07 7 44.5 38 -6.6 20.2
13:40 1019 30.09 849 25.07 7.3 45.2 38 -6 21.2
13:45 1019 30.09 849 25.07 7.1 44.8 40 -5.6 21.9
13:50 1019 30.09 848 25.04 6.6 43.9 42 -5.3 22.4
13:55 1019 30.09 848 25.04 6.1 42.9 44 -5.4 22.3
14:00 1019 30.09 848 25.04 6.2 43.2 42 -5.8 21.6
14:05 1019 30.09 848 25.04 6.8 44.2 39 -6.3 20.7
14:10 1019 30.09 848 25.04 7.7 45.8 37 -6.2 20.8
14:15 1019 30.09 848 25.04 7.2 44.9 38 -6.2 20.9
14:20 1019 30.09 848 25.04 7.2 44.9 38 -6.3 20.6
14:25 1019 30.09 848 25.04 7.3 45.1 37 -6.4 20.5
14:30 1019 30.09 848 25.04 7.1 44.7 37 -6.5 20.4
14:35 1019 30.09 848 25.04 8.2 46.7 35 -6.3 20.7
14:40 1019 30.09 848 25.04 9.1 48.3 31 -7 19.4
14:45 1019 30.09 848 25.04 9.5 49.1 31 -6.6 20.1
14:50 1019 30.09 848 25.04 8.9 48.1 34 -6.1 20.9
14:55 1019 30.09 848 25.04 8.7 47.7 33 -6.5 20.2
15:00 1019 30.09 848 25.04 8.2 46.7 34 -7 19.5
15:05 1019 30.09 848 25.04 7.8 46 33 -7.3 18.8
15:10 1019 30.09 848 25.04 7.6 45.8 34 -7.2 19
15:15 1019 30.09 848 25.04 7.4 45.2 34 -7.5 18.5
15:20 1019 30.09 848 25.04 9 48.2 30 -7.7 18.1
15:25 1019 30.09 848 25.04 9.6 49.3 29 -7.4 18.7
15:30 1019 30.09 848 25.04 9.1 48.3 31 -7.3 18.8
15:35 1019 30.09 848 25.04 8.9 48 32 -7.1 19.2
15:40 1019 30.09 848 25.04 8.5 47.3 31 -7.6 18.2
15:45 1019 30.09 848 25.04 8.4 47 31 -7.9 17.8
15:50 1019 30.09 848 25.04 8.6 47.6 31 -7.5 18.4
15:55 1019 30.09 848 25.04 8.5 47.2 31 -7.9 17.8
16:00 1019 30.09 848 25.04 8.4 47.1 32 -7.5 18.5
16:05 1019 30.09 848 25.04 7.6 45.7 32 -7.9 17.8
16:10 1019 30.09 848 25.04 7.4 45.2 31 -8.6 16.5
16:15 1019 30.09 848 25.04 8.3 46.9 30 -8.5 16.7
16:20 1018 30.06 848 25.04 8.6 47.5 30 -7.8 18
16:25 1018 30.06 848 25.04 8.5 47.3 30 -8 17.6
16:30 1018 30.06 848 25.04 8.9 48 29 -8.1 17.5
16:35 1018 30.06 848 25.04 8.6 47.5 29 -8.2 17.2
16:40 1018 30.06 848 25.04 8.7 47.6 29 -8.4 16.9
16:45 1018 30.06 848 25.04 8.9 47.9 29 -8.3 17.1
16:50 1018 30.06 848 25.04 9 48.1 28 -8.5 16.7
16:55 1018 30.06 847 25.01 9.7 49.4 27 -8.6 16.5
17:00 1018 30.06 847 25.01 10.1 50.1 26 -8.5 16.7
17:05 1018 30.06 847 25.01 10 50 27 -8.1 17.5
17:10 1018 30.06 847 25.01 9.3 48.8 28 -8.2 17.2
17:15 1018 30.06 847 25.01 9.7 49.5 27 -8.6 16.5
17:20 1018 30.06 847 25.01 9.7 49.4 27 -8.4 16.9
17:25 1018 30.06 847 25.01 9.7 49.5 26 -8.8 16.2
17:30 1018 30.06 847 25.01 10.3 50.6 25 -8.8 16.2
17:35 1018 30.06 847 25.01 10.3 50.5 25 -8.9 15.9
17:40 1018 30.06 847 25.01 10.5 51 24 -9.2 15.5
17:45 1018 30.06 847 25.01 10.5 50.9 24 -9.2 15.4
17:50 1018 30.06 847 25.01 10.4 50.7 23 -9.6 14.7
17:55 1018 30.06 847 25.01 10.2 50.4 24 -9.3 15.2
18:00 1018 30.06 847 25.01 9.2 48.6 25 -9.6 14.6
18:05 1018 30.06 847 25.01 9.1 48.4 27 -9.2 15.5
18:10 1018 30.06 847 25.01 8.3 47 27 -9.6 14.7
18:15 1018 30.06 847 25.01 8.9 48.1 25 -9.9 14.1
18:20 1018 30.06 847 25.01 9.7 49.5 25 -9.4 15.1
18:25 1018 30.06 847 25.01 9.8 49.7 24 -9.9 14.2
18:30 1018 30.06 847 25.01 9.2 48.6 24 -10.3 13.5
18:35 1018 30.06 847 25.01 9.1 48.3 25 -9.8 14.4
18:40 1018 30.06 847 25.01 8.6 47.4 26 -10.1 13.9
18:45 1018 30.06 847 25.01 8.3 46.9 26 -10 14.1
18:50 1018 30.06 847 25.01 8.1 46.6 26 -10.2 13.7
18:55 1018 30.06 847 25.01 8.3 46.9 26 -10.4 13.3
19:00 1018 30.06 847 25.01 8.3 46.9 26 -10.3 13.5
19:05 1018 30.06 847 25.01 8.3 46.9 26 -10.3 13.5
19:10 1018 30.06 847 25.01 8 46.4 26 -10.3 13.5
19:15 1018 30.06 847 25.01 8 46.4 25 -10.6 12.9
19:20 1018 30.06 847 25.01 8.2 46.7 26 -10.4 13.3
19:25 1018 30.06 847 25.01 8.2 46.7 26 -10.4 13.3
19:30 1018 30.06 847 25.01 7.9 46.2 27 -10.2 13.6
19:35 1018 30.06 847 25.01 7.8 46 27 -10.2 13.6
19:40 1018 30.06 847 25.01 7.6 45.7 27 -10.1 13.8
19:45 1018 30.06 847 25.01 7.5 45.5 26 -10.6 13
19:50 1018 30.06 847 25.01 7.5 45.5 27 -10.4 13.3
19:55 1018 30.06 847 25.01 7.4 45.4 27 -10.6 13
20:00 1018 30.06 847 25.01 7.3 45.2 27 -10.6 13
20:05 1018 30.06 847 25.01 7.2 45 27 -10.4 13.4
20:10 1018 30.06 847 25.01 7.1 44.8 29 -9.7 14.5
20:15 1018 30.06 847 25.01 6.8 44.3 29 -10 14
20:20 1018 30.06 847 25.01 6.5 43.7 31 -9.6 14.7
20:25 1018 30.06 847 25.01 6.4 43.5 31 -9.4 15.1
20:30 1018 30.06 847 25.01 6.1 43 34 -8.6 16.6
20:35 1018 30.06 847 25.01 5.6 42.1 39 -7.4 18.8
20:40 1018 30.06 847 25.01 4.6 40.3 43 -7 19.4
20:45 1018 30.06 847 25.01 4 39.2 44 -7.1 19.3
20:50 1018 30.06 847 25.01 3.8 38.8 45 -7.1 19.2
20:55 1018 30.06 847 25.01 3.6 38.5 46 -7.1 19.3
21:00 1018 30.06 847 25.01 3.3 37.9 47 -7 19.4
21:05 1018 30.06 847 25.01 3.1 37.6 47 -7.2 19
21:10 1018 30.06 847 25.01 2.9 37.1 48 -7.1 19.3
21:15 1018 30.06 847 25.01 2.6 36.6 47 -7.6 18.4
21:20 1018 30.06 847 25.01 2.5 36.5 47 -7.6 18.3
21:25 1018 30.06 847 25.01 2.4 36.3 48 -7.6 18.2
21:30 1018 30.06 847 25.01 2.4 36.3 47 -7.9 17.9
21:35 1018 30.06 847 25.01 2.5 36.5 47 -7.6 18.3
21:40 1018 30.06 847 25.01 2.5 36.5 46 -8.1 17.5
21:45 1018 30.06 847 25.01 2.5 36.5 46 -8 17.6
21:50 1018 30.06 847 25.01 2.5 36.4 47 -7.7 18.1
21:55 1018 30.06 847 25.01 2 35.6 49 -7.6 18.3
22:00 1018 30.06 847 25.01 1.8 35.2 49 -7.8 18
22:05 1018 30.06 847 25.01 1.7 35.1 49 -7.8 18
22:10 1018 30.06 847 25.01 1.6 34.9 49 -7.8 17.9
22:15 1018 30.06 847 25.01 1.6 34.8 50 -7.8 17.9
22:20 1018 30.06 847 25.01 1.5 34.7 50 -7.9 17.8
22:25 1018 30.06 847 25.01 1.5 34.8 49 -8.2 17.3
22:30 1018 30.06 847 25.01 1.5 34.8 49 -8 17.6
22:35 1018 30.06 847 25.01 1.5 34.7 49 -8 17.6
22:40 1018 30.06 847 25.01 1.4 34.5 49 -8.2 17.2
22:45 1018 30.06 847 25.01 1.6 34.8 47 -8.5 16.7
22:50 1018 30.06 847 25.01 1.7 35.1 49 -8 17.6
22:55 1018 30.06 847 25.01 1.6 34.9 49 -8.1 17.5
23:00 1018 30.06 847 25.01 1.4 34.5 49 -8.1 17.5
23:05 1018 30.06 847 25.01 1.3 34.3 50 -8.2 17.3
23:10 1018 30.06 847 25.01 1.1 34.1 51 -7.9 17.7
23:15 1018 30.06 847 25.01 1 33.7 52 -7.9 17.7
23:20 1018 30.06 847 25.01 0.8 33.5 52 -8 17.6
23:25 1018 30.06 847 25.01 0.9 33.7 51 -8.2 17.3
23:30 1018 30.06 847 25.01 1 33.8 50 -8.2 17.3
23:35 1018 30.06 847 25.01 1.1 33.9 50 -8.3 17
23:40 1018 30.06 847 25.01 1 33.8 50 -8.2 17.2
23:45 1018 30.06 847 25.01 0.9 33.5 51 -8.1 17.3
23:50 1018 30.06 847 25.01 0.7 33.2 51 -8.2 17.2
23:55 1018 30.06 847 25.01 0.7 33.3 51 -8.3 17
24:00 1018 30.06 847 25.01 0.8 33.4 51 -8.4 16.9